createdAt,value
2023-01-23T00:00:01.544Z,95832.63
2023-01-23T00:02:29.178Z,95834.47
2023-01-23T00:04:57.034Z,95836.50
2023-01-23T00:07:24.750Z,95834.28
2023-01-23T00:09:52.392Z,95838.22
2023-01-23T00:12:19.968Z,95838.22
2023-01-23T00:14:47.601Z,95840.41
2023-01-23T00:17:16.582Z,95841.28
2023-01-23T00:19:44.317Z,95846.19
2023-01-23T00:22:14.230Z,95842.91
2023-01-23T00:24:42.128Z,95850.22
2023-01-23T00:27:09.793Z,95849.38
2023-01-23T00:29:37.741Z,95846.59
2023-01-23T00:32:05.748Z,95843.53
2023-01-23T00:34:34.814Z,95843.25
2023-01-23T00:37:02.502Z,95847.03
2023-01-23T00:39:30.268Z,95844.25
2023-01-23T00:41:57.937Z,95840.09
2023-01-23T00:44:25.647Z,95838.56
2023-01-23T00:46:53.295Z,95845.31
2023-01-23T00:49:23.780Z,95845.06
2023-01-23T00:51:56.324Z,95846.47
2023-01-23T00:54:25.957Z,95848.84
2023-01-23T00:56:53.840Z,95845.94
2023-01-23T00:59:21.481Z,95852.38
2023-01-23T01:01:49.228Z,95849.34
2023-01-23T01:04:16.938Z,95853.25
2023-01-23T01:06:44.628Z,95857.09
2023-01-23T01:09:13.703Z,95863.09
2023-01-23T01:11:41.564Z,95862.84
2023-01-23T01:14:09.618Z,95863.28
2023-01-23T01:16:37.518Z,95870.69
2023-01-23T01:19:06.050Z,95870.44
2023-01-23T01:21:33.683Z,95869.31
2023-01-23T01:24:01.305Z,95873.53
2023-01-23T01:26:30.343Z,95873.53
2023-01-23T01:28:58.198Z,95871.00
2023-01-23T01:31:25.930Z,95866.94
2023-01-23T01:33:53.739Z,95871.13
2023-01-23T01:36:23.160Z,95862.75
2023-01-23T01:38:51.338Z,95862.59
2023-01-23T01:41:19.017Z,95865.69
2023-01-23T01:43:48.081Z,95866.25
2023-01-23T01:46:20.148Z,95852.94
2023-01-23T01:48:52.107Z,95854.47
2023-01-23T01:51:20.979Z,95853.66
2023-01-23T01:53:50.850Z,95848.59
2023-01-23T01:56:19.788Z,95840.19
2023-01-23T01:58:50.729Z,95843.41
2023-01-23T02:01:19.216Z,95847.19
2023-01-23T02:03:47.098Z,95859.25
2023-01-23T02:06:15.077Z,95852.94
2023-01-23T02:08:46.681Z,95847.88
2023-01-23T02:11:15.216Z,95844.66
2023-01-23T02:13:43.152Z,95841.56
2023-01-23T02:16:14.494Z,95856.69
2023-01-23T02:18:45.653Z,95850.81
2023-01-23T02:21:14.741Z,95848.28
2023-01-23T02:23:56.852Z,95845.75
2023-01-23T02:26:26.279Z,95845.19
2023-01-23T02:28:55.268Z,95846.75
2023-01-23T02:31:23.967Z,95841.25
2023-01-23T02:33:53.529Z,95852.75
2023-01-23T02:36:23.296Z,95835.25
2023-01-23T02:38:55.319Z,95845.44
2023-01-23T02:41:29.035Z,95844.34
2023-01-23T02:43:58.055Z,95838.16
2023-01-23T02:46:26.368Z,95836.38
2023-01-23T02:48:55.024Z,95832.84
2023-01-23T02:51:24.386Z,95818.00
2023-01-23T02:53:52.184Z,95830.91
2023-01-23T02:56:20.337Z,95823.47
2023-01-23T02:59:06.972Z,95831.59
2023-01-23T03:01:35.877Z,95834.81
2023-01-23T03:04:04.823Z,95840.41
2023-01-23T03:06:36.222Z,95849.06
2023-01-23T03:09:09.651Z,95853.66
2023-01-23T03:11:39.049Z,95857.44
2023-01-23T03:14:09.831Z,95857.88
2023-01-23T03:16:38.579Z,95861.13
2023-01-23T03:19:09.099Z,95867.72
2023-01-23T03:21:38.384Z,95868.44
2023-01-23T03:24:06.748Z,95871.22
2023-01-23T03:26:34.567Z,95864.78
2023-01-23T03:29:19.912Z,95868.72
2023-01-23T03:31:49.053Z,95859.88
2023-01-23T03:34:17.987Z,95868.59
2023-01-23T03:36:45.884Z,95862.84
2023-01-23T03:39:31.298Z,95861.03
2023-01-23T03:41:59.002Z,95867.06
2023-01-23T03:44:26.749Z,95871.13
2023-01-23T03:46:55.952Z,95860.78
2023-01-23T03:49:23.757Z,95864.84
2023-01-23T03:51:51.463Z,95861.47
2023-01-23T03:54:19.092Z,95858.81
2023-01-23T03:56:47.046Z,95849.00
2023-01-23T03:59:14.731Z,95851.53
2023-01-23T04:01:42.523Z,95851.97
2023-01-23T04:04:12.258Z,95854.63
2023-01-23T04:06:40.344Z,95850.00
2023-01-23T04:09:08.401Z,95856.19
2023-01-23T04:11:36.603Z,95853.38
2023-01-23T04:14:04.431Z,95866.69
2023-01-23T04:16:32.185Z,95863.72
2023-01-23T04:19:00.049Z,95857.56
2023-01-23T04:21:29.142Z,95866.53
2023-01-23T04:23:56.750Z,95860.78
2023-01-23T04:26:24.543Z,95865.69
2023-01-23T04:28:52.218Z,95860.09
2023-01-23T04:31:20.059Z,95868.78
2023-01-23T04:33:47.837Z,95868.50
2023-01-23T04:36:15.555Z,95875.25
2023-01-23T04:38:44.710Z,95866.28
2023-01-23T04:41:16.374Z,95877.63
2023-01-23T04:43:44.059Z,95880.59
2023-01-23T04:46:11.762Z,95883.13
2023-01-23T04:48:39.521Z,95876.66
2023-01-23T04:51:07.447Z,95876.94
2023-01-23T04:53:35.242Z,95873.31
2023-01-23T04:56:04.922Z,95879.47
2023-01-23T04:58:32.616Z,95872.31
2023-01-23T05:01:03.870Z,95874.28
2023-01-23T05:03:32.911Z,95864.63
2023-01-23T05:06:00.537Z,95868.78
2023-01-23T05:08:28.239Z,95870.47
2023-01-23T05:10:55.993Z,95864.88
2023-01-23T05:13:25.090Z,95869.34
2023-01-23T05:15:52.796Z,95860.41
2023-01-23T05:18:20.453Z,95864.63
2023-01-23T05:20:48.116Z,95867.53
2023-01-23T05:23:15.921Z,95863.75
2023-01-23T05:25:44.926Z,95873.03
2023-01-23T05:28:12.570Z,95882.28
2023-01-23T05:30:41.773Z,95879.19
2023-01-23T05:33:09.619Z,95885.91
2023-01-23T05:35:39.642Z,95893.22
2023-01-23T05:38:07.944Z,95890.81
2023-01-23T05:40:36.034Z,95900.66
2023-01-23T05:43:03.885Z,95907.81
2023-01-23T05:45:31.986Z,95905.84
2023-01-23T05:48:28.038Z,95907.50
2023-01-23T05:51:26.159Z,95907.66
2023-01-23T05:53:56.388Z,95911.44
2023-01-23T06:00:16.893Z,95905.84
2023-01-23T06:02:44.907Z,95899.50
2023-01-23T06:05:14.545Z,95905.44
2023-01-23T06:07:42.568Z,95904.44
2023-01-23T06:10:11.578Z,95901.63
2023-01-23T06:12:39.549Z,95905.84
2023-01-23T06:15:20.471Z,95912.56
2023-01-23T06:18:10.900Z,95906.81
2023-01-23T06:20:47.036Z,95911.59
2023-01-23T06:23:19.804Z,95920.00
2023-01-23T06:25:48.251Z,95917.88
2023-01-23T06:28:20.995Z,95904.13
2023-01-23T06:30:50.939Z,95910.59
2023-01-23T06:33:27.613Z,95924.88
2023-01-23T06:36:03.715Z,95912.25
2023-01-23T06:38:48.347Z,95908.06
2023-01-23T06:45:00.433Z,95912.53
2023-01-23T06:47:33.648Z,95899.09
2023-01-23T06:51:00.837Z,95902.75
2023-01-23T06:53:14.516Z,95895.59
2023-01-23T06:55:49.837Z,95911.16
2023-01-23T06:58:20.841Z,95902.75
2023-01-23T07:00:57.261Z,95904.84
2023-01-23T07:03:32.452Z,95907.50
2023-01-23T07:06:22.714Z,95913.41
2023-01-23T07:08:59.249Z,95911.31
2023-01-23T07:11:43.448Z,95918.03
2023-01-23T07:14:11.618Z,95914.81
2023-01-23T07:16:42.468Z,95911.31
2023-01-23T07:19:11.877Z,95921.84
2023-01-23T07:21:41.438Z,95923.94
2023-01-23T07:24:17.086Z,95928.00
2023-01-23T07:26:45.158Z,95926.31
2023-01-23T07:29:14.360Z,95919.03
2023-01-23T07:31:42.515Z,95924.78
2023-01-23T07:34:13.049Z,95946.38
2023-01-23T07:36:43.474Z,95945.09
2023-01-23T07:39:16.333Z,95943.84
2023-01-23T07:41:46.520Z,95935.72
2023-01-23T07:44:25.099Z,95930.53
2023-01-23T07:47:07.536Z,95948.91
2023-01-23T07:49:38.883Z,95950.31
2023-01-23T07:52:09.008Z,95955.78
2023-01-23T07:54:47.030Z,95945.13
2023-01-23T07:57:19.644Z,95955.94
2023-01-23T07:59:56.578Z,95933.63
2023-01-23T08:02:26.395Z,95949.75
2023-01-23T08:04:56.915Z,95965.06
2023-01-23T08:07:28.660Z,95957.06
2023-01-23T08:10:03.592Z,95968.16
2023-01-23T08:12:33.145Z,95974.72
2023-01-23T08:15:11.871Z,95966.75
2023-01-23T08:17:41.012Z,95961.41
2023-01-23T08:20:20.803Z,95953.56
2023-01-23T08:22:49.437Z,95949.34
2023-01-23T08:25:22.519Z,95947.66
2023-01-23T08:27:50.566Z,95946.25
2023-01-23T08:30:20.895Z,95947.66
2023-01-23T08:32:54.283Z,95951.31
2023-01-23T08:35:29.220Z,95946.53
2023-01-23T08:38:04.879Z,95944.00
2023-01-23T08:40:52.178Z,95950.06
2023-01-23T08:43:43.295Z,95957.47
2023-01-23T08:46:26.969Z,95966.19
2023-01-23T08:49:27.851Z,95949.91
2023-01-23T08:52:18.701Z,95947.22
2023-01-23T08:55:10.265Z,95963.09
2023-01-23T08:57:51.957Z,95963.09
2023-01-23T09:00:55.967Z,95968.69
2023-01-23T09:04:08.187Z,95957.22
2023-01-23T09:06:50.493Z,95957.91
2023-01-23T09:09:49.289Z,95957.47
2023-01-23T09:13:14.310Z,95956.94
2023-01-23T09:16:03.709Z,95960.84
2023-01-23T09:18:45.614Z,95960.56
2023-01-23T09:21:22.520Z,95965.75
2023-01-23T09:24:18.907Z,95963.50
2023-01-23T09:26:49.541Z,95962.81
2023-01-23T09:29:21.040Z,95962.34
2023-01-23T09:32:04.745Z,95963.06
2023-01-23T09:34:43.051Z,95960.50
2023-01-23T09:37:58.399Z,95965.00
2023-01-23T09:41:06.429Z,95949.53
2023-01-23T09:44:03.736Z,95953.75
2023-01-23T09:47:16.365Z,95950.69
2023-01-23T09:50:10.625Z,95944.19
2023-01-23T09:53:32.799Z,95934.06
2023-01-23T09:59:58.840Z,95936.28
2023-01-23T10:03:19.854Z,95944.84
2023-01-23T10:10:48.703Z,95954.53
2023-01-23T10:22:07.760Z,95937.22
2023-01-23T10:41:08.136Z,95919.78
2023-01-23T10:44:56.421Z,95921.97
2023-01-23T10:48:09.206Z,95911.44
2023-01-23T11:48:12.098Z,95851.72
2023-01-23T11:50:56.150Z,95852.25
2023-01-23T11:53:42.697Z,95844.72
2023-01-23T11:57:34.619Z,95838.94
2023-01-23T12:05:08.921Z,95830.88
2023-01-23T12:28:32.026Z,95822.03
2023-01-23T13:09:47.257Z,95787.13
2023-01-23T13:12:36.003Z,95789.44
2023-01-23T13:16:08.922Z,95791.44
2023-01-23T13:19:02.990Z,95797.75
2023-01-23T13:21:57.471Z,95795.59
2023-01-23T13:24:52.044Z,95805.13
2023-01-23T13:27:43.272Z,95802.16
2023-01-23T13:31:26.471Z,95797.13
2023-01-23T13:34:37.380Z,95800.81
2023-01-23T13:37:43.931Z,95804.53
2023-01-23T13:40:22.708Z,95807.19
2023-01-23T13:42:54.180Z,95792.53
2023-01-23T13:45:39.183Z,95796.19
2023-01-23T14:23:50.964Z,95800.47
2023-01-23T14:26:43.815Z,95804.69
2023-01-23T14:29:25.536Z,95788.44
2023-01-23T14:32:01.844Z,95787.25
2023-01-23T14:34:52.698Z,95786.13
2023-01-23T14:37:31.625Z,95779.94
2023-01-23T14:43:09.343Z,95781.59
2023-01-23T14:48:45.273Z,95782.59
2023-01-23T14:51:38.970Z,95782.59
2023-01-23T14:54:33.353Z,95795.31
2023-01-23T14:57:04.735Z,95797.03
2023-01-23T14:59:34.435Z,95788.16
2023-01-23T15:02:22.622Z,95796.81
2023-01-23T15:05:34.638Z,95803.00
2023-01-23T15:09:12.351Z,95804.84
2023-01-23T15:11:40.348Z,95798.97
2023-01-23T15:17:53.130Z,95809.38
2023-01-23T15:21:20.157Z,95812.25
2023-01-23T15:24:16.933Z,95820.63
2023-01-23T15:27:33.605Z,95809.94
2023-01-23T15:33:42.761Z,95809.41
2023-01-23T15:36:26.648Z,95810.09
2023-01-23T15:38:54.959Z,95809.41
2023-01-23T15:41:55.580Z,95807.72
2023-01-23T15:44:33.626Z,95808.25
2023-01-23T15:47:13.655Z,95809.41
2023-01-23T15:49:52.371Z,95807.88
2023-01-23T15:52:53.232Z,95814.56
2023-01-23T15:55:23.208Z,95813.06
2023-01-23T15:57:56.941Z,95817.03
2023-01-23T16:00:41.746Z,95827.28
2023-01-23T16:03:12.978Z,95820.13
2023-01-23T16:05:59.585Z,95830.47
2023-01-23T16:09:05.141Z,95833.50
2023-01-23T16:11:46.069Z,95836.00
2023-01-23T16:14:48.918Z,95824.31
2023-01-23T16:17:24.026Z,95835.16
2023-01-23T16:20:04.451Z,95843.19
2023-01-23T16:22:46.927Z,95841.19
2023-01-23T16:25:52.994Z,95840.88
2023-01-23T16:29:08.681Z,95846.69
2023-01-23T16:31:54.091Z,95840.97
2023-01-23T16:34:40.004Z,95848.31
2023-01-23T16:37:13.235Z,95851.16
2023-01-23T16:39:44.843Z,95839.72
2023-01-23T16:42:27.995Z,95839.72
2023-01-23T16:48:21.616Z,95844.91
2023-01-23T16:51:00.990Z,95836.44
2023-01-23T16:53:50.448Z,95837.25
2023-01-23T16:56:52.934Z,95835.41
2023-01-23T16:59:21.224Z,95838.78
2023-01-23T17:01:51.155Z,95836.75
2023-01-23T17:04:22.046Z,95847.81
2023-01-23T17:06:56.200Z,95844.16
2023-01-23T17:09:36.381Z,95849.34
2023-01-23T17:12:04.495Z,95840.91
2023-01-23T17:14:32.693Z,95844.44
2023-01-23T17:17:08.787Z,95843.06
2023-01-23T17:19:39.463Z,95844.75
2023-01-23T17:22:14.389Z,95842.75
2023-01-23T17:24:44.293Z,95839.19
2023-01-23T17:27:12.201Z,95851.41
2023-01-23T17:29:48.685Z,95838.75
2023-01-23T17:32:31.791Z,95846.13
2023-01-23T17:35:02.653Z,95839.94
2023-01-23T17:37:32.499Z,95844.31
2023-01-23T17:40:00.494Z,95842.81
2023-01-23T17:42:33.916Z,95840.16
2023-01-23T17:45:01.817Z,95847.13
2023-01-23T17:47:30.014Z,95849.50
2023-01-23T17:49:58.451Z,95847.44
2023-01-23T17:52:28.711Z,95852.13
2023-01-23T17:54:57.718Z,95853.97
2023-01-23T17:57:25.297Z,95856.72
2023-01-23T17:59:54.855Z,95859.25
2023-01-23T18:02:27.283Z,95841.53
2023-01-23T18:04:55.747Z,95859.59
2023-01-23T18:07:23.313Z,95865.63
2023-01-23T18:09:51.160Z,95868.72
2023-01-23T18:12:27.006Z,95866.34
2023-01-23T18:14:58.408Z,95869.53
2023-01-23T18:17:36.512Z,95858.84
2023-01-23T18:20:05.033Z,95869.53
2023-01-23T18:22:33.410Z,95874.69
2023-01-23T18:25:01.496Z,95875.03
2023-01-23T18:27:31.626Z,95882.41
2023-01-23T18:30:21.433Z,95878.03
2023-01-23T18:33:07.919Z,95876.03
2023-01-23T18:36:00.985Z,95877.66
2023-01-23T18:38:33.971Z,95870.47
2023-01-23T18:41:11.564Z,95869.03
2023-01-23T18:43:43.717Z,95867.84
2023-01-23T18:46:14.051Z,95883.06
2023-01-23T18:48:43.048Z,95875.19
2023-01-23T18:51:20.302Z,95875.19
2023-01-23T18:53:53.018Z,95873.19
2023-01-23T18:56:26.077Z,95878.19
2023-01-23T18:59:11.475Z,95882.03
2023-01-23T19:01:45.004Z,95878.03
2023-01-23T19:04:14.739Z,95883.06
2023-01-23T19:06:44.198Z,95889.25
2023-01-23T19:09:19.354Z,95893.78
2023-01-23T19:11:59.425Z,95893.47
2023-01-23T19:14:41.371Z,95897.13
2023-01-23T19:17:16.609Z,95896.97
2023-01-23T19:19:49.658Z,95894.31
2023-01-23T19:22:19.190Z,95891.94
2023-01-23T19:24:47.341Z,95900.97
2023-01-23T19:27:21.301Z,95901.81
2023-01-23T19:29:50.606Z,95900.63
2023-01-23T19:32:18.904Z,95909.38
2023-01-23T19:34:46.504Z,95911.03
2023-01-23T19:37:14.747Z,95909.53
2023-01-23T19:39:42.610Z,95901.34
2023-01-23T19:42:14.053Z,95912.72
2023-01-23T19:44:41.722Z,95906.84
2023-01-23T19:47:10.875Z,95916.88
2023-01-23T19:49:38.453Z,95924.41
2023-01-23T19:52:06.101Z,95911.84
2023-01-23T19:54:33.714Z,95916.69
2023-01-23T19:57:01.576Z,95916.88
2023-01-23T19:59:29.289Z,95913.50
2023-01-23T20:01:57.079Z,95919.56
2023-01-23T20:04:26.160Z,95922.41
2023-01-23T20:06:53.806Z,95920.53
2023-01-23T20:09:21.582Z,95924.72
2023-01-23T20:11:49.245Z,95921.22
2023-01-23T20:14:16.913Z,95923.06
2023-01-23T20:16:44.690Z,95927.25
2023-01-23T20:19:13.912Z,95936.16
2023-01-23T20:21:43.075Z,95929.09
2023-01-23T20:24:11.147Z,95928.25
2023-01-23T20:27:08.754Z,95933.16
2023-01-23T20:29:43.272Z,95936.66
2023-01-23T20:32:13.775Z,95936.81
2023-01-23T20:34:58.344Z,95938.50
2023-01-23T20:38:43.819Z,95939.50
2023-01-23T20:41:02.774Z,95939.97
2023-01-23T20:43:40.509Z,95933.78
2023-01-23T20:46:13.695Z,95930.09
2023-01-23T20:48:52.529Z,95942.03
2023-01-23T20:51:28.462Z,95940.31
2023-01-23T20:53:58.872Z,95940.31
2023-01-23T20:56:32.549Z,95937.66
2023-01-23T20:59:24.134Z,95948.50
2023-01-23T21:02:09.482Z,95947.53
2023-01-23T21:04:40.695Z,95942.78
2023-01-23T21:07:11.399Z,95944.19
2023-01-23T21:09:40.602Z,95946.84
2023-01-23T21:12:11.859Z,95952.06
2023-01-23T21:14:48.337Z,95957.06
2023-01-23T21:17:16.260Z,95946.91
2023-01-23T21:19:44.669Z,95958.59
2023-01-23T21:22:12.521Z,95960.75
2023-01-23T21:24:44.483Z,95957.78
2023-01-23T21:27:23.455Z,95959.06
2023-01-23T21:29:58.169Z,95950.72
2023-01-23T21:32:33.098Z,95955.41
2023-01-23T21:35:08.618Z,95948.19
2023-01-23T21:37:37.257Z,95952.72
2023-01-23T21:40:08.494Z,95953.94
2023-01-23T21:42:37.090Z,95961.97
2023-01-23T21:45:05.349Z,95961.91
2023-01-23T21:47:42.936Z,95959.06
2023-01-23T21:50:11.961Z,95964.13
2023-01-23T21:52:39.756Z,95964.56
2023-01-23T21:55:09.661Z,95966.13
2023-01-23T21:57:37.429Z,95972.00
2023-01-23T22:00:23.531Z,95959.59
2023-01-23T22:02:51.300Z,95960.16
2023-01-23T22:05:19.298Z,95968.00
2023-01-23T22:07:48.449Z,95968.84
2023-01-23T22:10:17.853Z,95968.84
2023-01-23T22:12:45.516Z,95968.00
2023-01-23T22:15:13.167Z,95960.81
2023-01-23T22:17:40.812Z,95962.81
2023-01-23T22:20:09.620Z,95970.84
2023-01-23T22:22:37.229Z,95973.69
2023-01-23T22:25:05.320Z,95969.84
2023-01-23T22:27:34.358Z,95975.88
2023-01-23T22:30:01.941Z,95980.41
2023-01-23T22:32:54.384Z,95979.03
2023-01-23T22:35:24.758Z,95982.41
2023-01-23T22:37:52.751Z,95982.41
2023-01-23T22:40:20.562Z,95981.22
2023-01-23T22:42:49.622Z,95979.25
2023-01-23T22:45:17.461Z,95981.94
2023-01-23T22:47:45.020Z,95974.56
2023-01-23T22:50:12.775Z,95984.28
2023-01-23T22:52:41.803Z,95980.09
2023-01-23T22:55:10.181Z,95982.59
2023-01-23T22:57:38.041Z,95984.63
2023-01-23T23:00:10.841Z,95987.28
2023-01-23T23:02:38.883Z,95979.56
2023-01-23T23:05:07.488Z,95976.56
2023-01-23T23:07:36.408Z,95974.44
2023-01-23T23:10:04.312Z,95985.28
2023-01-23T23:12:31.934Z,95982.59
2023-01-23T23:14:59.503Z,95989.63
2023-01-23T23:17:29.868Z,95982.31
2023-01-23T23:19:57.571Z,95983.81
2023-01-23T23:22:25.139Z,95986.34
2023-01-23T23:24:53.113Z,95982.31
2023-01-23T23:27:20.746Z,95989.31
2023-01-23T23:29:48.371Z,95977.78
2023-01-23T23:32:16.181Z,95973.56
2023-01-23T23:34:45.329Z,95973.25
2023-01-23T23:37:13.022Z,95976.94
2023-01-23T23:39:40.633Z,95981.13
2023-01-23T23:42:08.345Z,95972.28
2023-01-23T23:44:35.966Z,95971.25
2023-01-23T23:47:03.597Z,95978.59
2023-01-23T23:49:31.206Z,95972.72
2023-01-23T23:52:00.199Z,95973.75
2023-01-23T23:54:28.060Z,95972.56
2023-01-23T23:56:55.778Z,95975.09
2023-01-23T23:59:23.470Z,95973.56
